Time;durP1;ratioP1;P1;durP2;ratioP2;P2;SDS_P1;SDS_P2;PMS_P1;PMS_P2;Temp;Humidity;BMP_temperature;BMP_pressure;BME280_temperature;BME280_humidity;BME280_pressure;Samples;Min_cycle;Max_cycle;Signal;HPM_P1;HPM_P2
2022/08/19 00:08:39;;;;;;;2.37;2.00;;;;;;;17.82;100.00;97452.50;18232627;32;20059;-63
2022/08/19 00:18:44;;;;;;;3.90;2.35;;;;;;;17.79;100.00;97462.13;18232227;32;20058;-63
2022/08/19 00:28:47;;;;;;;3.22;2.12;;;;;;;17.76;100.00;97454.56;18217454;32;20384;-63
2022/08/19 00:38:52;;;;;;;2.50;1.83;;;;;;;17.66;100.00;97450.22;18218223;32;20047;-63
2022/08/19 00:48:57;;;;;;;2.67;2.20;;;;;;;17.63;100.00;97450.88;18241617;32;20066;-63
2022/08/19 00:59:01;;;;;;;2.80;1.80;;;;;;;17.60;100.00;97459.72;18227238;32;20054;-63
2022/08/19 01:09:05;;;;;;;2.40;1.55;;;;;;;17.54;100.00;97456.34;18240564;32;20443;-63
2022/08/19 01:19:24;;;;;;;1.83;1.55;;;;;;;17.40;100.00;97447.47;18239994;32;20062;-63
2022/08/19 01:29:28;;;;;;;2.37;1.92;;;;;;;17.26;100.00;97440.22;18213504;32;20065;-63
2022/08/19 01:39:31;;;;;;;3.35;2.10;;;;;;;17.20;100.00;97446.97;18225317;32;20043;-63
2022/08/19 01:49:34;;;;;;;2.95;1.67;;;;;;;17.16;100.00;97432.34;18238230;32;20046;-63
2022/08/19 01:59:39;;;;;;;1.77;1.60;;;;;;;17.21;100.00;97445.88;18237316;32;20051;-63
2022/08/19 02:09:42;;;;;;;2.97;2.03;;;;;;;17.23;100.00;97460.00;18224782;32;20114;-63
2022/08/19 02:19:44;;;;;;;2.50;2.20;;;;;;;17.26;100.00;97459.34;18237581;32;20051;-63
2022/08/19 02:29:48;;;;;;;5.50;3.35;;;;;;;17.28;100.00;97457.13;18223430;32;20046;-63
2022/08/19 02:39:51;;;;;;;2.08;1.77;;;;;;;17.25;100.00;97455.03;18222900;32;20066;-63
2022/08/19 02:49:54;;;;;;;2.37;1.73;;;;;;;17.20;100.00;97446.97;18236018;32;20089;-63
2022/08/19 02:59:57;;;;;;;3.22;2.47;;;;;;;17.24;100.00;97445.22;18221601;32;20411;-63
2022/08/19 03:09:59;;;;;;;4.70;3.03;;;;;;;17.28;100.00;97451.66;18235063;32;20058;-63
2022/08/19 03:20:03;;;;;;;2.83;2.53;;;;;;;17.25;100.00;97446.84;18234644;32;20064;-63
2022/08/19 03:30:06;;;;;;;3.30;2.62;;;;;;;17.19;100.00;97459.03;18208019;32;20099;-63
2022/08/19 03:40:13;;;;;;;2.83;2.42;;;;;;;17.08;100.00;97471.37;18234274;32;20102;-63
2022/08/19 03:50:19;;;;;;;2.42;2.17;;;;;;;17.04;100.00;97465.75;18233550;32;20103;-63
2022/08/19 04:00:21;;;;;;;2.33;2.12;;;;;;;17.09;100.00;97459.34;18232515;32;20049;-63
2022/08/19 04:10:24;;;;;;;3.00;2.42;;;;;;;17.06;100.00;97447.13;18232450;32;20050;-63
2022/08/19 04:20:27;;;;;;;2.83;2.33;;;;;;;17.13;100.00;97468.50;18231042;32;20057;-64
2022/08/19 04:30:29;;;;;;;3.03;2.70;;;;;;;17.16;100.00;97486.19;18231656;32;20065;-63
2022/08/19 04:50:59;;;;;;;2.72;2.53;;;;;;;17.08;100.00;97495.97;18230890;32;20088;-63
2022/08/19 05:01:01;;;;;;;3.50;2.80;;;;;;;17.07;100.00;97484.22;18217622;32;20094;-63
2022/08/19 05:11:15;;;;;;;2.63;2.43;;;;;;;17.11;100.00;97495.31;18216464;32;20050;-63
2022/08/19 05:31:43;;;;;;;2.87;2.65;;;;;;;17.13;100.00;97514.94;18237057;32;20047;-63
2022/08/19 05:41:51;;;;;;;7.53;3.78;;;;;;;17.16;100.00;97519.78;18225682;32;20046;-63
2022/08/19 05:51:56;;;;;;;8.38;3.95;;;;;;;17.30;100.00;97541.50;18238535;32;20054;-63
2022/08/19 06:02:03;;;;;;;4.78;4.15;;;;;;;17.43;100.00;97539.75;18224752;32;20065;-63
2022/08/19 06:12:07;;;;;;;4.18;3.78;;;;;;;17.49;100.00;97543.97;18237425;32;20469;-63
2022/08/19 06:22:14;;;;;;;4.85;4.35;;;;;;;17.59;100.00;97554.59;18237659;32;20046;-63
2022/08/19 06:32:24;;;;;;;4.57;4.12;;;;;;;17.66;100.00;97565.06;18236930;32;20066;-63
2022/08/19 06:42:29;;;;;;;6.70;4.87;;;;;;;17.72;100.00;97568.44;18222495;32;20061;-63
2022/08/19 06:52:39;;;;;;;5.45;4.35;;;;;;;17.81;100.00;97563.78;18236045;32;20066;-63
2022/08/19 07:02:45;;;;;;;4.97;4.47;;;;;;;17.85;100.00;97567.50;18235279;32;20042;-63
2022/08/19 07:12:58;;;;;;;5.15;4.65;;;;;;;17.94;100.00;97568.34;18235217;32;20403;-63
2022/08/19 07:23:09;;;;;;;6.00;5.35;;;;;;;18.28;100.00;97580.44;18234764;32;20058;-63
2022/08/19 07:44:46;;;;;;;6.20;5.05;;;;;;;18.76;100.00;97607.91;18232757;32;20073;-63
2022/08/19 07:54:55;;;;;;;5.95;5.30;;;;;;;18.74;100.00;97607.44;18232450;32;20114;-63
2022/08/19 08:15:23;;;;;;;6.00;4.93;;;;;;;18.86;100.00;97613.03;18232249;32;20054;-63
2022/08/19 08:25:48;;;;;;;5.57;5.03;;;;;;;18.96;100.00;97640.09;18207698;32;20127;-63
2022/08/19 08:36:05;;;;;;;5.72;5.15;;;;;;;18.99;100.00;97646.87;18231289;32;20483;-63
2022/08/19 08:46:38;;;;;;;6.80;5.60;;;;;;;19.18;100.00;97643.75;18217225;32;20085;-63
2022/08/19 08:56:53;;;;;;;8.15;7.32;;;;;;;19.69;100.00;97662.28;18229672;32;20102;-63
2022/08/19 09:07:47;;;;;;;7.43;6.68;;;;;;;20.36;100.00;97684.50;18224902;32;20070;-62
2022/08/19 09:17:54;;;;;;;9.00;7.18;;;;;;;20.67;100.00;97677.81;18094079;32;20094;-62
2022/08/19 09:28:03;;;;;;;16.45;8.50;;;;;;;21.32;100.00;97692.72;18105776;32;20082;-62
2022/08/19 09:38:36;;;;;;;11.07;9.00;;;;;;;22.07;100.00;97710.12;18105541;32;20105;-62
2022/08/19 09:48:48;;;;;;;11.65;9.20;;;;;;;22.45;96.83;97719.97;18131386;32;20069;-63
2022/08/19 09:59:03;;;;;;;11.45;10.10;;;;;;;21.99;94.20;97720.13;18237925;32;20070;-63
2022/08/19 10:09:19;;;;;;;10.88;8.88;;;;;;;21.57;98.67;97725.00;18224701;32;20496;-63
2022/08/19 10:19:44;;;;;;;11.82;10.02;;;;;;;21.21;100.00;97735.53;18236512;32;20395;-63
2022/08/19 10:29:59;;;;;;;14.18;9.48;;;;;;;21.05;100.00;97729.06;18224688;32;20059;-63
2022/08/19 10:40:15;;;;;;;15.00;10.55;;;;;;;21.10;100.00;97732.44;18224699;32;20102;-63
2022/08/19 11:01:01;;;;;;;12.63;11.32;;;;;;;21.41;100.00;97733.09;18235301;32;20050;-63
2022/08/19 11:11:11;;;;;;;14.73;11.43;;;;;;;21.86;100.00;97725.94;18235267;32;20062;-62
2022/08/19 11:21:25;;;;;;;15.02;12.23;;;;;;;21.91;98.30;97718.28;18234743;32;20465;-63
2022/08/19 11:31:33;;;;;;;14.27;12.77;;;;;;;21.89;98.51;97720.56;18234286;32;20106;-62
2022/08/19 11:41:37;;;;;;;15.07;12.18;;;;;;;21.70;97.22;97718.38;18234243;32;20348;-62
2022/08/19 11:51:43;;;;;;;16.87;12.75;;;;;;;21.78;97.26;97727.69;18233259;32;20058;-62
2022/08/19 12:01:51;;;;;;;15.73;12.15;;;;;;;22.17;97.56;97733.62;18232758;32;20088;-62
2022/08/19 12:11:57;;;;;;;14.93;13.23;;;;;;;22.59;95.28;97730.63;18232421;32;20062;-62
2022/08/19 12:22:07;;;;;;;14.00;12.60;;;;;;;23.07;90.21;97741.06;18231908;32;20104;-62
2022/08/19 12:32:10;;;;;;;16.05;14.38;;;;;;;23.75;88.74;97736.56;18217859;32;20390;-62
2022/08/19 12:42:17;;;;;;;14.35;12.70;;;;;;;24.28;82.94;97728.78;18213522;32;20101;-62
2022/08/19 12:52:25;;;;;;;18.40;12.65;;;;;;;24.52;81.27;97725.00;18279566;32;20054;-62
2022/08/19 13:02:31;;;;;;;15.40;13.55;;;;;;;23.20;82.74;97734.38;18240649;32;20059;-62
2022/08/19 13:12:43;;;;;;;15.90;14.20;;;;;;;21.62;93.68;97736.56;18227781;32;20051;-62
2022/08/19 13:22:50;;;;;;;15.90;14.30;;;;;;;21.60;98.26;97741.62;18240083;32;20062;-62
2022/08/19 13:33:11;;;;;;;17.37;14.35;;;;;;;21.62;98.48;97739.34;18239333;32;20059;-62
2022/08/19 13:43:21;;;;;;;13.82;12.40;;;;;;;21.85;98.24;97732.63;18239127;32;20066;-62
2022/08/19 13:53:26;;;;;;;14.95;13.35;;;;;;;22.12;97.83;97722.87;18238593;32;20055;-62
2022/08/19 14:03:31;;;;;;;15.60;12.88;;;;;;;22.12;97.93;97711.84;18223795;32;20058;-62
2022/08/19 14:13:34;;;;;;;12.70;11.32;;;;;;;22.35;96.42;97714.94;18224269;32;20484;-62
2022/08/19 14:23:38;;;;;;;17.27;15.52;;;;;;;22.46;95.59;97742.81;18237080;32;20114;-62
2022/08/19 14:33:42;;;;;;;13.62;12.23;;;;;;;21.71;98.84;97757.69;18236685;32;20059;-62
2022/08/19 14:43:48;;;;;;;13.43;12.07;;;;;;;22.02;100.00;97761.88;18236269;32;20050;-62
2022/08/19 14:53:52;;;;;;;10.88;9.65;;;;;;;21.65;99.53;97763.44;18222342;32;20054;-61
2022/08/19 15:03:56;;;;;;;7.97;7.18;;;;;;;21.22;99.46;97747.34;18235053;32;20055;-61
2022/08/19 15:14:01;;;;;;;8.35;7.40;;;;;;;20.83;99.85;97747.53;18235347;32;20066;-61
2022/08/19 15:24:04;;;;;;;8.43;7.57;;;;;;;20.41;100.00;97745.53;18234648;32;20134;-62
2022/08/19 15:34:08;;;;;;;9.88;7.78;;;;;;;20.22;100.00;97736.94;18234392;32;20058;-61
2022/08/19 15:44:17;;;;;;;8.23;7.37;;;;;;;20.00;100.00;97738.81;18220202;32;20067;-62
2022/08/19 15:54:21;;;;;;;9.43;8.52;;;;;;;19.75;100.00;97740.53;18234029;32;20112;-61
2022/08/19 16:14:48;;;;;;;10.82;8.40;;;;;;;19.81;100.00;97750.19;18231878;32;20058;-62
2022/08/19 16:24:51;;;;;;;11.02;9.20;;;;;;;19.72;100.00;97760.37;18218412;32;20106;-61
2022/08/19 16:34:54;;;;;;;9.73;8.27;;;;;;;19.63;100.00;97754.91;18231621;32;20492;-62
2022/08/19 16:44:58;;;;;;;10.17;8.63;;;;;;;19.70;100.00;97746.19;18231114;32;20176;-62
2022/08/19 16:55:04;;;;;;;10.00;8.90;;;;;;;19.82;100.00;97751.81;18217551;32;20057;-62
2022/08/19 17:05:09;;;;;;;11.15;9.95;;;;;;;19.90;100.00;97758.41;18230084;32;20054;-62
2022/08/19 17:15:12;;;;;;;12.98;10.90;;;;;;;19.85;100.00;97762.13;18229884;32;20137;-62
2022/08/19 17:25:16;;;;;;;11.73;10.40;;;;;;;19.71;100.00;97753.28;18221027;32;20099;-62
2022/08/19 17:35:21;;;;;;;10.82;9.75;;;;;;;19.45;100.00;97768.69;18226461;32;20070;-62
2022/08/19 17:45:26;;;;;;;10.70;9.60;;;;;;;19.35;100.00;97762.72;18238880;32;20073;-62
2022/08/19 17:55:29;;;;;;;10.43;9.23;;;;;;;19.36;100.00;97756.91;18213507;32;20363;-62
2022/08/19 18:05:39;;;;;;;9.60;8.60;;;;;;;19.38;100.00;97751.13;18173723;32;20042;-62
2022/08/19 18:15:44;;;;;;;11.15;9.57;;;;;;;19.54;100.00;97749.47;18175652;32;20055;-63
2022/08/19 18:25:48;;;;;;;11.27;10.18;;;;;;;19.67;100.00;97755.09;18173303;32;20084;-63
2022/08/19 18:35:52;;;;;;;11.40;9.93;;;;;;;19.64;100.00;97759.28;18173586;32;20074;-62
2022/08/19 18:56:19;;;;;;;11.15;10.05;;;;;;;18.92;100.00;97800.78;18176407;32;20407;-62
2022/08/19 19:06:29;;;;;;;11.35;10.10;;;;;;;18.50;100.00;97808.63;18235423;32;20062;-63
2022/08/19 19:16:32;;;;;;;10.43;9.32;;;;;;;18.21;100.00;97822.84;18235316;32;20093;-62
2022/08/19 19:26:35;;;;;;;11.27;9.40;;;;;;;17.93;100.00;97817.59;18208891;32;20446;-62
2022/08/19 19:36:39;;;;;;;12.18;10.38;;;;;;;17.70;100.00;97825.00;18221068;32;20111;-62
2022/08/19 19:46:43;;;;;;;14.90;9.90;;;;;;;17.55;100.00;97837.13;18220132;32;20109;-62
2022/08/19 19:56:49;;;;;;;10.48;9.38;;;;;;;17.37;100.00;97839.75;18232960;32;20407;-62
2022/08/19 20:06:52;;;;;;;11.57;8.43;;;;;;;17.13;100.00;97848.25;18219041;32;20054;-62
2022/08/19 20:16:56;;;;;;;9.83;8.60;;;;;;;16.96;100.00;97859.81;18206315;32;20128;-62
2022/08/19 20:27:01;;;;;;;11.05;7.80;;;;;;;16.81;100.00;97863.66;18232059;32;20074;-62
2022/08/19 20:37:04;;;;;;;8.20;7.40;;;;;;;16.65;100.00;97876.03;18218045;32;20078;-62
2022/08/19 20:47:07;;;;;;;9.63;7.57;;;;;;;16.52;100.00;97878.47;18231595;32;20073;-62
2022/08/19 20:57:10;;;;;;;8.60;6.28;;;;;;;16.37;100.00;97881.50;18232374;32;20438;-62
2022/08/19 21:07:14;;;;;;;6.65;5.62;;;;;;;16.25;100.00;97885.53;18241011;32;20084;-62
2022/08/19 21:17:17;;;;;;;6.68;4.45;;;;;;;16.21;100.00;97878.25;18240344;32;20062;-62
2022/08/19 21:27:21;;;;;;;5.30;4.07;;;;;;;16.20;100.00;97877.44;18226481;32;20472;-62
2022/08/19 21:37:24;;;;;;;4.87;4.30;;;;;;;16.13;100.00;97882.50;18226167;32;20438;-62
2022/08/19 21:47:27;;;;;;;4.37;3.70;;;;;;;16.00;100.00;97894.19;18225165;32;20062;-62
2022/08/19 21:57:30;;;;;;;5.43;3.20;;;;;;;15.89;100.00;97894.34;18238202;32;20062;-62
2022/08/19 22:07:32;;;;;;;4.53;3.83;;;;;;;15.80;100.00;97895.34;18237156;32;20047;-62
2022/08/19 22:17:35;;;;;;;5.22;3.40;;;;;;;15.74;100.00;97891.88;18238147;32;20070;-62
2022/08/19 22:27:38;;;;;;;3.40;3.10;;;;;;;15.70;100.00;97913.44;18237383;32;20062;-62
2022/08/19 22:37:42;;;;;;;3.57;2.97;;;;;;;15.57;100.00;97914.22;18237300;32;20070;-62
2022/08/19 22:47:45;;;;;;;3.57;2.93;;;;;;;15.52;100.00;97911.59;18236784;32;20386;-63
2022/08/19 22:57:48;;;;;;;3.75;2.33;;;;;;;15.57;100.00;97916.97;18221898;32;20077;-63
2022/08/19 23:07:51;;;;;;;3.42;2.97;;;;;;;15.68;100.00;97920.34;18235791;32;20089;-62
2022/08/19 23:17:56;;;;;;;3.43;3.10;;;;;;;15.76;100.00;97915.00;18221236;32;20098;-62
2022/08/19 23:38:22;;;;;;;3.55;2.60;;;;;;;16.00;100.00;97900.44;18234704;32;20374;-62
2022/08/19 23:48:26;;;;;;;4.43;3.12;;;;;;;16.08;100.00;97882.59;18220404;32;20062;-62
2022/08/19 23:58:30;;;;;;;3.55;2.65;;;;;;;16.07;100.00;97875.50;18219212;32;20069;-61
